sensor_id;sensor_type;location;lat;lon;timestamp;P1;durP1;ratioP1;P2;durP2;ratioP2
40955;SDS011;26687;48.254;11.454;2022-08-19T00:02:23;5.28;;;4.88;;
40955;SDS011;26687;48.254;11.454;2022-08-19T00:05:23;5.40;;;4.90;;
40955;SDS011;26687;48.254;11.454;2022-08-19T00:08:23;5.37;;;4.97;;
40955;SDS011;26687;48.254;11.454;2022-08-19T00:11:24;5.50;;;5.10;;
40955;SDS011;26687;48.254;11.454;2022-08-19T00:14:25;5.05;;;4.65;;
40955;SDS011;26687;48.254;11.454;2022-08-19T00:17:26;5.15;;;4.75;;
40955;SDS011;26687;48.254;11.454;2022-08-19T00:20:26;4.67;;;4.33;;
40955;SDS011;26687;48.254;11.454;2022-08-19T00:23:26;5.53;;;5.00;;
40955;SDS011;26687;48.254;11.454;2022-08-19T00:26:27;4.80;;;4.50;;
40955;SDS011;26687;48.254;11.454;2022-08-19T00:29:28;5.25;;;4.78;;
40955;SDS011;26687;48.254;11.454;2022-08-19T00:32:28;4.97;;;4.57;;
40955;SDS011;26687;48.254;11.454;2022-08-19T00:35:28;4.97;;;4.55;;
40955;SDS011;26687;48.254;11.454;2022-08-19T00:38:29;5.67;;;5.10;;
40955;SDS011;26687;48.254;11.454;2022-08-19T00:41:29;5.35;;;4.95;;
40955;SDS011;26687;48.254;11.454;2022-08-19T00:44:29;5.97;;;5.47;;
40955;SDS011;26687;48.254;11.454;2022-08-19T00:47:30;5.60;;;5.20;;
40955;SDS011;26687;48.254;11.454;2022-08-19T00:50:30;5.80;;;5.30;;
40955;SDS011;26687;48.254;11.454;2022-08-19T00:53:31;6.70;;;5.90;;
40955;SDS011;26687;48.254;11.454;2022-08-19T00:56:31;6.20;;;5.70;;
40955;SDS011;26687;48.254;11.454;2022-08-19T00:59:33;6.63;;;6.13;;
40955;SDS011;26687;48.254;11.454;2022-08-19T01:02:34;6.40;;;5.80;;
40955;SDS011;26687;48.254;11.454;2022-08-19T01:05:34;6.07;;;5.57;;
40955;SDS011;26687;48.254;11.454;2022-08-19T01:08:35;6.80;;;6.13;;
40955;SDS011;26687;48.254;11.454;2022-08-19T01:11:37;6.47;;;5.97;;
40955;SDS011;26687;48.254;11.454;2022-08-19T01:14:39;6.85;;;6.32;;
40955;SDS011;26687;48.254;11.454;2022-08-19T01:17:40;6.82;;;6.32;;
40955;SDS011;26687;48.254;11.454;2022-08-19T01:20:41;7.28;;;6.68;;
40955;SDS011;26687;48.254;11.454;2022-08-19T01:23:42;7.55;;;6.95;;
40955;SDS011;26687;48.254;11.454;2022-08-19T01:26:43;7.75;;;7.15;;
40955;SDS011;26687;48.254;11.454;2022-08-19T01:29:44;7.95;;;7.35;;
40955;SDS011;26687;48.254;11.454;2022-08-19T01:32:45;8.38;;;7.60;;
40955;SDS011;26687;48.254;11.454;2022-08-19T01:35:45;7.60;;;6.83;;
40955;SDS011;26687;48.254;11.454;2022-08-19T01:38:45;7.88;;;7.18;;
40955;SDS011;26687;48.254;11.454;2022-08-19T01:41:46;8.50;;;7.80;;
40955;SDS011;26687;48.254;11.454;2022-08-19T01:44:46;7.40;;;6.80;;
40955;SDS011;26687;48.254;11.454;2022-08-19T01:47:46;7.82;;;7.22;;
40955;SDS011;26687;48.254;11.454;2022-08-19T01:50:47;8.03;;;7.33;;
40955;SDS011;26687;48.254;11.454;2022-08-19T01:53:48;8.57;;;7.88;;
40955;SDS011;26687;48.254;11.454;2022-08-19T01:56:49;8.25;;;7.55;;
40955;SDS011;26687;48.254;11.454;2022-08-19T01:59:50;8.10;;;7.30;;
40955;SDS011;26687;48.254;11.454;2022-08-19T02:02:51;8.98;;;8.27;;
40955;SDS011;26687;48.254;11.454;2022-08-19T02:05:58;9.13;;;8.23;;
40955;SDS011;26687;48.254;11.454;2022-08-19T02:08:59;8.57;;;7.88;;
40955;SDS011;26687;48.254;11.454;2022-08-19T02:11:59;8.27;;;7.47;;
40955;SDS011;26687;48.254;11.454;2022-08-19T02:15:00;8.23;;;7.63;;
40955;SDS011;26687;48.254;11.454;2022-08-19T02:18:01;8.65;;;7.95;;
40955;SDS011;26687;48.254;11.454;2022-08-19T02:21:01;8.57;;;7.75;;
40955;SDS011;26687;48.254;11.454;2022-08-19T02:24:02;8.77;;;8.00;;
40955;SDS011;26687;48.254;11.454;2022-08-19T02:27:02;8.68;;;7.88;;
40955;SDS011;26687;48.254;11.454;2022-08-19T02:30:03;8.97;;;8.17;;
40955;SDS011;26687;48.254;11.454;2022-08-19T02:33:04;9.40;;;8.70;;
40955;SDS011;26687;48.254;11.454;2022-08-19T02:36:05;8.35;;;7.55;;
40955;SDS011;26687;48.254;11.454;2022-08-19T02:39:05;9.75;;;8.95;;
40955;SDS011;26687;48.254;11.454;2022-08-19T02:42:05;9.45;;;8.60;;
40955;SDS011;26687;48.254;11.454;2022-08-19T02:45:06;8.63;;;7.93;;
40955;SDS011;26687;48.254;11.454;2022-08-19T02:48:07;8.85;;;8.05;;
40955;SDS011;26687;48.254;11.454;2022-08-19T02:51:08;9.00;;;8.30;;
40955;SDS011;26687;48.254;11.454;2022-08-19T02:54:15;8.80;;;7.90;;
40955;SDS011;26687;48.254;11.454;2022-08-19T02:57:15;8.25;;;7.55;;
40955;SDS011;26687;48.254;11.454;2022-08-19T03:00:16;8.68;;;7.95;;
40955;SDS011;26687;48.254;11.454;2022-08-19T03:03:16;7.97;;;7.38;;
40955;SDS011;26687;48.254;11.454;2022-08-19T03:06:17;8.98;;;8.18;;
40955;SDS011;26687;48.254;11.454;2022-08-19T03:09:18;8.95;;;8.15;;
40955;SDS011;26687;48.254;11.454;2022-08-19T03:12:19;8.57;;;7.88;;
40955;SDS011;26687;48.254;11.454;2022-08-19T03:15:19;8.60;;;8.00;;
40955;SDS011;26687;48.254;11.454;2022-08-19T03:18:20;9.05;;;8.27;;
40955;SDS011;26687;48.254;11.454;2022-08-19T03:21:22;8.20;;;7.50;;
40955;SDS011;26687;48.254;11.454;2022-08-19T03:24:24;8.57;;;7.88;;
40955;SDS011;26687;48.254;11.454;2022-08-19T03:27:24;9.05;;;8.25;;
40955;SDS011;26687;48.254;11.454;2022-08-19T03:30:24;8.50;;;7.80;;
40955;SDS011;26687;48.254;11.454;2022-08-19T03:33:25;9.57;;;8.57;;
40955;SDS011;26687;48.254;11.454;2022-08-19T03:36:26;9.40;;;8.63;;
40955;SDS011;26687;48.254;11.454;2022-08-19T03:39:27;8.98;;;8.13;;
40955;SDS011;26687;48.254;11.454;2022-08-19T03:42:27;9.20;;;8.40;;
40955;SDS011;26687;48.254;11.454;2022-08-19T03:45:27;9.80;;;8.90;;
40955;SDS011;26687;48.254;11.454;2022-08-19T03:48:28;9.02;;;8.32;;
40955;SDS011;26687;48.254;11.454;2022-08-19T03:51:31;9.32;;;8.52;;
40955;SDS011;26687;48.254;11.454;2022-08-19T03:54:32;9.43;;;8.63;;
40955;SDS011;26687;48.254;11.454;2022-08-19T03:57:32;10.37;;;9.37;;
40955;SDS011;26687;48.254;11.454;2022-08-19T04:00:33;8.98;;;8.20;;
40955;SDS011;26687;48.254;11.454;2022-08-19T04:03:34;9.32;;;8.52;;
40955;SDS011;26687;48.254;11.454;2022-08-19T04:06:36;10.02;;;9.05;;
40955;SDS011;26687;48.254;11.454;2022-08-19T04:09:38;10.27;;;9.37;;
40955;SDS011;26687;48.254;11.454;2022-08-19T04:12:38;10.02;;;8.95;;
40955;SDS011;26687;48.254;11.454;2022-08-19T04:15:40;10.75;;;9.60;;
40955;SDS011;26687;48.254;11.454;2022-08-19T04:18:41;10.25;;;9.35;;
40955;SDS011;26687;48.254;11.454;2022-08-19T04:21:43;10.13;;;9.32;;
40955;SDS011;26687;48.254;11.454;2022-08-19T04:24:43;9.98;;;9.07;;
40955;SDS011;26687;48.254;11.454;2022-08-19T04:27:43;10.73;;;9.73;;
40955;SDS011;26687;48.254;11.454;2022-08-19T04:30:47;10.93;;;10.03;;
40955;SDS011;26687;48.254;11.454;2022-08-19T04:33:47;10.57;;;9.57;;
40955;SDS011;26687;48.254;11.454;2022-08-19T04:36:48;11.40;;;10.40;;
40955;SDS011;26687;48.254;11.454;2022-08-19T04:39:50;10.82;;;9.82;;
40955;SDS011;26687;48.254;11.454;2022-08-19T04:43:09;11.23;;;10.32;;
40955;SDS011;26687;48.254;11.454;2022-08-19T04:46:12;11.05;;;9.95;;
40955;SDS011;26687;48.254;11.454;2022-08-19T04:49:12;10.35;;;9.45;;
40955;SDS011;26687;48.254;11.454;2022-08-19T04:52:12;11.13;;;10.02;;
40955;SDS011;26687;48.254;11.454;2022-08-19T04:55:13;11.18;;;10.27;;
40955;SDS011;26687;48.254;11.454;2022-08-19T04:58:13;11.10;;;10.15;;
40955;SDS011;26687;48.254;11.454;2022-08-19T05:01:14;10.80;;;9.90;;
40955;SDS011;26687;48.254;11.454;2022-08-19T05:07:17;11.20;;;10.05;;
40955;SDS011;26687;48.254;11.454;2022-08-19T05:10:17;11.37;;;10.37;;
40955;SDS011;26687;48.254;11.454;2022-08-19T05:13:18;11.60;;;10.70;;
40955;SDS011;26687;48.254;11.454;2022-08-19T05:16:19;11.20;;;10.20;;
40955;SDS011;26687;48.254;11.454;2022-08-19T05:19:20;10.27;;;9.43;;
40955;SDS011;26687;48.254;11.454;2022-08-19T05:22:39;11.32;;;10.35;;
40955;SDS011;26687;48.254;11.454;2022-08-19T05:25:39;11.43;;;10.50;;
40955;SDS011;26687;48.254;11.454;2022-08-19T05:28:40;11.63;;;10.63;;
40955;SDS011;26687;48.254;11.454;2022-08-19T05:31:40;10.73;;;9.82;;
40955;SDS011;26687;48.254;11.454;2022-08-19T05:34:41;10.80;;;9.90;;
40955;SDS011;26687;48.254;11.454;2022-08-19T05:37:41;11.15;;;10.15;;
40955;SDS011;26687;48.254;11.454;2022-08-19T05:40:42;10.43;;;9.43;;
40955;SDS011;26687;48.254;11.454;2022-08-19T05:43:47;11.15;;;10.15;;
40955;SDS011;26687;48.254;11.454;2022-08-19T05:46:47;10.87;;;9.87;;
40955;SDS011;26687;48.254;11.454;2022-08-19T05:49:48;11.57;;;10.47;;
40955;SDS011;26687;48.254;11.454;2022-08-19T05:52:49;10.45;;;9.55;;
40955;SDS011;26687;48.254;11.454;2022-08-19T05:55:49;10.75;;;9.75;;
40955;SDS011;26687;48.254;11.454;2022-08-19T05:58:50;11.45;;;10.50;;
40955;SDS011;26687;48.254;11.454;2022-08-19T06:01:51;11.63;;;10.53;;
40955;SDS011;26687;48.254;11.454;2022-08-19T06:04:51;12.13;;;11.13;;
40955;SDS011;26687;48.254;11.454;2022-08-19T06:07:51;14.63;;;13.33;;
40955;SDS011;26687;48.254;11.454;2022-08-19T06:10:51;12.43;;;11.32;;
40955;SDS011;26687;48.254;11.454;2022-08-19T06:13:53;18.42;;;16.60;;
40955;SDS011;26687;48.254;11.454;2022-08-19T06:16:53;16.60;;;15.00;;
40955;SDS011;26687;48.254;11.454;2022-08-19T06:19:54;16.05;;;14.55;;
40955;SDS011;26687;48.254;11.454;2022-08-19T06:22:54;16.17;;;14.70;;
40955;SDS011;26687;48.254;11.454;2022-08-19T06:25:54;17.60;;;15.80;;
40955;SDS011;26687;48.254;11.454;2022-08-19T06:28:54;17.53;;;15.87;;
40955;SDS011;26687;48.254;11.454;2022-08-19T06:31:56;17.00;;;15.40;;
40955;SDS011;26687;48.254;11.454;2022-08-19T06:34:56;18.17;;;16.48;;
40955;SDS011;26687;48.254;11.454;2022-08-19T06:37:56;17.93;;;16.13;;
40955;SDS011;26687;48.254;11.454;2022-08-19T06:41:03;17.13;;;15.57;;
40955;SDS011;26687;48.254;11.454;2022-08-19T06:44:04;15.95;;;14.55;;
40955;SDS011;26687;48.254;11.454;2022-08-19T06:47:05;16.25;;;14.80;;
40955;SDS011;26687;48.254;11.454;2022-08-19T06:50:06;17.27;;;15.60;;
40955;SDS011;26687;48.254;11.454;2022-08-19T06:53:06;18.10;;;16.50;;
40955;SDS011;26687;48.254;11.454;2022-08-19T06:56:06;18.33;;;16.53;;
40955;SDS011;26687;48.254;11.454;2022-08-19T06:59:08;19.30;;;17.50;;
40955;SDS011;26687;48.254;11.454;2022-08-19T07:02:08;18.02;;;16.33;;
40955;SDS011;26687;48.254;11.454;2022-08-19T07:05:09;17.70;;;16.10;;
40955;SDS011;26687;48.254;11.454;2022-08-19T07:08:09;18.67;;;17.00;;
40955;SDS011;26687;48.254;11.454;2022-08-19T07:11:10;19.02;;;17.38;;
40955;SDS011;26687;48.254;11.454;2022-08-19T07:14:11;19.83;;;18.02;;
40955;SDS011;26687;48.254;11.454;2022-08-19T07:17:12;20.02;;;18.08;;
40955;SDS011;26687;48.254;11.454;2022-08-19T07:20:12;19.55;;;17.85;;
40955;SDS011;26687;48.254;11.454;2022-08-19T07:23:12;19.80;;;17.73;;
40955;SDS011;26687;48.254;11.454;2022-08-19T07:26:14;19.70;;;18.00;;
40955;SDS011;26687;48.254;11.454;2022-08-19T07:29:15;19.77;;;17.98;;
40955;SDS011;26687;48.254;11.454;2022-08-19T07:32:16;19.92;;;18.23;;
40955;SDS011;26687;48.254;11.454;2022-08-19T07:35:16;20.23;;;18.40;;
40955;SDS011;26687;48.254;11.454;2022-08-19T07:38:19;19.77;;;17.95;;
40955;SDS011;26687;48.254;11.454;2022-08-19T07:41:20;21.48;;;19.45;;
40955;SDS011;26687;48.254;11.454;2022-08-19T07:44:21;23.10;;;20.92;;
40955;SDS011;26687;48.254;11.454;2022-08-19T07:47:22;23.65;;;21.38;;
40955;SDS011;26687;48.254;11.454;2022-08-19T07:50:22;23.30;;;21.00;;
40955;SDS011;26687;48.254;11.454;2022-08-19T07:53:23;26.60;;;24.07;;
40955;SDS011;26687;48.254;11.454;2022-08-19T07:56:24;25.75;;;23.00;;
40955;SDS011;26687;48.254;11.454;2022-08-19T07:59:25;23.27;;;21.00;;
40955;SDS011;26687;48.254;11.454;2022-08-19T08:02:26;20.75;;;18.80;;
40955;SDS011;26687;48.254;11.454;2022-08-19T08:05:26;21.30;;;19.33;;
40955;SDS011;26687;48.254;11.454;2022-08-19T08:08:45;18.67;;;16.88;;
40955;SDS011;26687;48.254;11.454;2022-08-19T08:12:05;19.02;;;17.33;;
40955;SDS011;26687;48.254;11.454;2022-08-19T08:15:08;20.58;;;18.83;;
40955;SDS011;26687;48.254;11.454;2022-08-19T08:18:09;21.73;;;19.63;;
40955;SDS011;26687;48.254;11.454;2022-08-19T08:21:10;20.70;;;18.70;;
40955;SDS011;26687;48.254;11.454;2022-08-19T08:24:10;20.87;;;18.90;;
40955;SDS011;26687;48.254;11.454;2022-08-19T08:27:11;19.08;;;17.15;;
40955;SDS011;26687;48.254;11.454;2022-08-19T08:30:16;16.83;;;15.32;;
40955;SDS011;26687;48.254;11.454;2022-08-19T08:33:17;17.05;;;15.55;;
40955;SDS011;26687;48.254;11.454;2022-08-19T08:36:17;16.10;;;14.50;;
40955;SDS011;26687;48.254;11.454;2022-08-19T08:39:18;12.90;;;11.57;;
40955;SDS011;26687;48.254;11.454;2022-08-19T08:42:32;13.13;;;12.02;;
40955;SDS011;26687;48.254;11.454;2022-08-19T08:45:35;13.00;;;11.80;;
40955;SDS011;26687;48.254;11.454;2022-08-19T08:48:38;12.95;;;11.88;;
40955;SDS011;26687;48.254;11.454;2022-08-19T08:51:42;14.73;;;13.43;;
40955;SDS011;26687;48.254;11.454;2022-08-19T08:54:44;14.82;;;13.43;;
40955;SDS011;26687;48.254;11.454;2022-08-19T09:00:54;14.40;;;13.20;;
40955;SDS011;26687;48.254;11.454;2022-08-19T09:03:54;14.90;;;13.48;;
40955;SDS011;26687;48.254;11.454;2022-08-19T09:16:25;14.60;;;13.35;;
40955;SDS011;26687;48.254;11.454;2022-08-19T09:19:27;14.55;;;13.35;;
40955;SDS011;26687;48.254;11.454;2022-08-19T09:22:28;15.27;;;13.88;;
40955;SDS011;26687;48.254;11.454;2022-08-19T09:25:28;14.40;;;13.20;;
40955;SDS011;26687;48.254;11.454;2022-08-19T09:28:28;12.80;;;11.70;;
40955;SDS011;26687;48.254;11.454;2022-08-19T09:31:29;12.07;;;11.07;;
40955;SDS011;26687;48.254;11.454;2022-08-19T09:34:29;13.80;;;12.50;;
40955;SDS011;26687;48.254;11.454;2022-08-19T09:37:29;15.85;;;14.25;;
40955;SDS011;26687;48.254;11.454;2022-08-19T09:40:30;14.65;;;13.35;;
40955;SDS011;26687;48.254;11.454;2022-08-19T09:43:31;16.08;;;14.48;;
40955;SDS011;26687;48.254;11.454;2022-08-19T09:46:31;16.25;;;14.82;;
40955;SDS011;26687;48.254;11.454;2022-08-19T09:49:32;16.90;;;15.33;;
40955;SDS011;26687;48.254;11.454;2022-08-19T09:52:32;15.48;;;13.93;;
40955;SDS011;26687;48.254;11.454;2022-08-19T09:55:33;16.08;;;14.68;;
40955;SDS011;26687;48.254;11.454;2022-08-19T09:58:33;15.68;;;14.07;;
40955;SDS011;26687;48.254;11.454;2022-08-19T10:01:34;15.63;;;14.32;;
40955;SDS011;26687;48.254;11.454;2022-08-19T10:04:34;17.00;;;15.50;;
40955;SDS011;26687;48.254;11.454;2022-08-19T10:07:53;23.65;;;21.45;;
40955;SDS011;26687;48.254;11.454;2022-08-19T10:10:54;25.25;;;22.85;;
40955;SDS011;26687;48.254;11.454;2022-08-19T10:13:55;23.45;;;21.15;;
40955;SDS011;26687;48.254;11.454;2022-08-19T10:16:55;23.47;;;20.97;;
40955;SDS011;26687;48.254;11.454;2022-08-19T10:19:56;13.02;;;11.77;;
40955;SDS011;26687;48.254;11.454;2022-08-19T10:22:56;21.23;;;19.13;;
40955;SDS011;26687;48.254;11.454;2022-08-19T10:25:59;18.58;;;16.88;;
40955;SDS011;26687;48.254;11.454;2022-08-19T10:28:59;21.73;;;19.73;;
40955;SDS011;26687;48.254;11.454;2022-08-19T10:32:00;22.80;;;20.70;;
40955;SDS011;26687;48.254;11.454;2022-08-19T10:35:01;23.48;;;21.00;;
40955;SDS011;26687;48.254;11.454;2022-08-19T10:38:02;22.25;;;20.15;;
40955;SDS011;26687;48.254;11.454;2022-08-19T10:41:09;16.10;;;14.70;;
40955;SDS011;26687;48.254;11.454;2022-08-19T10:44:11;15.43;;;14.02;;
40955;SDS011;26687;48.254;11.454;2022-08-19T10:47:11;15.98;;;14.48;;
40955;SDS011;26687;48.254;11.454;2022-08-19T10:50:11;17.50;;;15.80;;
40955;SDS011;26687;48.254;11.454;2022-08-19T10:53:30;15.40;;;13.95;;
40955;SDS011;26687;48.254;11.454;2022-08-19T10:56:31;14.40;;;13.10;;
40955;SDS011;26687;48.254;11.454;2022-08-19T10:59:50;13.88;;;12.48;;
40955;SDS011;26687;48.254;11.454;2022-08-19T11:02:51;13.47;;;12.17;;
40955;SDS011;26687;48.254;11.454;2022-08-19T11:06:01;9.68;;;8.85;;
40955;SDS011;26687;48.254;11.454;2022-08-19T11:09:02;7.85;;;7.15;;
40955;SDS011;26687;48.254;11.454;2022-08-19T11:12:02;6.07;;;5.57;;
40955;SDS011;26687;48.254;11.454;2022-08-19T11:15:03;7.43;;;5.45;;
40955;SDS011;26687;48.254;11.454;2022-08-19T11:18:03;4.30;;;3.90;;
40955;SDS011;26687;48.254;11.454;2022-08-19T11:21:20;4.97;;;3.50;;
40955;SDS011;26687;48.254;11.454;2022-08-19T11:24:22;3.80;;;3.50;;
40955;SDS011;26687;48.254;11.454;2022-08-19T11:27:22;2.97;;;2.75;;
40955;SDS011;26687;48.254;11.454;2022-08-19T11:30:22;3.00;;;2.80;;
40955;SDS011;26687;48.254;11.454;2022-08-19T11:33:23;3.40;;;2.60;;
40955;SDS011;26687;48.254;11.454;2022-08-19T11:36:25;2.75;;;2.55;;
40955;SDS011;26687;48.254;11.454;2022-08-19T11:39:26;2.88;;;2.67;;
40955;SDS011;26687;48.254;11.454;2022-08-19T11:42:27;3.00;;;2.80;;
40955;SDS011;26687;48.254;11.454;2022-08-19T11:45:46;2.55;;;2.28;;
40955;SDS011;26687;48.254;11.454;2022-08-19T11:48:48;2.50;;;1.90;;
40955;SDS011;26687;48.254;11.454;2022-08-19T11:51:50;1.60;;;1.50;;
40955;SDS011;26687;48.254;11.454;2022-08-19T11:54:50;1.70;;;1.60;;
40955;SDS011;26687;48.254;11.454;2022-08-19T11:57:51;1.33;;;0.60;;
40955;SDS011;26687;48.254;11.454;2022-08-19T12:00:51;1.83;;;1.30;;
40955;SDS011;26687;48.254;11.454;2022-08-19T12:03:52;1.77;;;1.00;;
40955;SDS011;26687;48.254;11.454;2022-08-19T12:06:53;1.20;;;1.10;;
40955;SDS011;26687;48.254;11.454;2022-08-19T12:09:54;1.25;;;1.20;;
40955;SDS011;26687;48.254;11.454;2022-08-19T12:12:54;1.33;;;1.15;;
40955;SDS011;26687;48.254;11.454;2022-08-19T12:15:54;2.10;;;1.13;;
40955;SDS011;26687;48.254;11.454;2022-08-19T12:18:55;1.00;;;0.80;;
40955;SDS011;26687;48.254;11.454;2022-08-19T12:21:58;0.73;;;0.73;;
40955;SDS011;26687;48.254;11.454;2022-08-19T12:25:00;1.15;;;0.77;;
40955;SDS011;26687;48.254;11.454;2022-08-19T12:28:00;1.20;;;1.10;;
40955;SDS011;26687;48.254;11.454;2022-08-19T12:31:01;1.00;;;0.90;;
40955;SDS011;26687;48.254;11.454;2022-08-19T12:34:01;0.80;;;0.80;;
40955;SDS011;26687;48.254;11.454;2022-08-19T12:37:02;0.80;;;0.80;;
40955;SDS011;26687;48.254;11.454;2022-08-19T12:40:03;0.85;;;0.85;;
40955;SDS011;26687;48.254;11.454;2022-08-19T12:43:03;1.77;;;1.17;;
40955;SDS011;26687;48.254;11.454;2022-08-19T12:46:04;1.08;;;0.98;;
40955;SDS011;26687;48.254;11.454;2022-08-19T12:49:05;1.70;;;0.90;;
40955;SDS011;26687;48.254;11.454;2022-08-19T12:52:06;0.85;;;0.85;;
40955;SDS011;26687;48.254;11.454;2022-08-19T12:55:07;1.58;;;1.10;;
40955;SDS011;26687;48.254;11.454;2022-08-19T12:58:08;1.10;;;1.00;;
40955;SDS011;26687;48.254;11.454;2022-08-19T13:01:10;1.38;;;1.27;;
40955;SDS011;26687;48.254;11.454;2022-08-19T13:04:10;1.60;;;1.50;;
40955;SDS011;26687;48.254;11.454;2022-08-19T13:07:10;2.40;;;2.20;;
40955;SDS011;26687;48.254;11.454;2022-08-19T13:10:12;2.50;;;2.30;;
40955;SDS011;26687;48.254;11.454;2022-08-19T13:13:13;1.90;;;1.80;;
40955;SDS011;26687;48.254;11.454;2022-08-19T13:16:13;2.10;;;2.00;;
40955;SDS011;26687;48.254;11.454;2022-08-19T13:19:13;2.30;;;2.10;;
40955;SDS011;26687;48.254;11.454;2022-08-19T13:22:14;2.42;;;2.22;;
40955;SDS011;26687;48.254;11.454;2022-08-19T13:25:14;2.65;;;2.45;;
40955;SDS011;26687;48.254;11.454;2022-08-19T13:28:17;3.35;;;2.55;;
40955;SDS011;26687;48.254;11.454;2022-08-19T13:31:18;2.25;;;2.15;;
40955;SDS011;26687;48.254;11.454;2022-08-19T13:34:37;2.60;;;2.40;;
40955;SDS011;26687;48.254;11.454;2022-08-19T13:37:37;2.27;;;2.07;;
40955;SDS011;26687;48.254;11.454;2022-08-19T13:40:43;2.40;;;2.20;;
40955;SDS011;26687;48.254;11.454;2022-08-19T13:43:44;2.60;;;2.40;;
40955;SDS011;26687;48.254;11.454;2022-08-19T13:46:44;2.55;;;2.35;;
40955;SDS011;26687;48.254;11.454;2022-08-19T13:49:44;2.70;;;2.30;;
40955;SDS011;26687;48.254;11.454;2022-08-19T13:52:45;2.40;;;2.20;;
40955;SDS011;26687;48.254;11.454;2022-08-19T13:55:45;2.45;;;2.25;;
40955;SDS011;26687;48.254;11.454;2022-08-19T13:58:46;2.10;;;2.00;;
40955;SDS011;26687;48.254;11.454;2022-08-19T14:01:46;2.33;;;2.13;;
40955;SDS011;26687;48.254;11.454;2022-08-19T14:04:46;4.57;;;2.30;;
40955;SDS011;26687;48.254;11.454;2022-08-19T14:07:47;2.25;;;2.05;;
40955;SDS011;26687;48.254;11.454;2022-08-19T14:10:48;2.05;;;1.90;;
40955;SDS011;26687;48.254;11.454;2022-08-19T14:13:49;2.42;;;2.22;;
40955;SDS011;26687;48.254;11.454;2022-08-19T14:16:49;2.50;;;2.30;;
40955;SDS011;26687;48.254;11.454;2022-08-19T14:19:49;2.40;;;2.20;;
40955;SDS011;26687;48.254;11.454;2022-08-19T14:22:49;2.88;;;2.55;;
40955;SDS011;26687;48.254;11.454;2022-08-19T14:25:49;2.90;;;2.70;;
40955;SDS011;26687;48.254;11.454;2022-08-19T14:28:49;2.90;;;2.70;;
40955;SDS011;26687;48.254;11.454;2022-08-19T14:31:50;3.40;;;3.20;;
40955;SDS011;26687;48.254;11.454;2022-08-19T14:34:50;3.70;;;3.43;;
40955;SDS011;26687;48.254;11.454;2022-08-19T14:37:51;3.80;;;3.50;;
40955;SDS011;26687;48.254;11.454;2022-08-19T14:40:55;3.97;;;3.67;;
40955;SDS011;26687;48.254;11.454;2022-08-19T14:43:56;4.25;;;3.95;;
40955;SDS011;26687;48.254;11.454;2022-08-19T14:46:56;5.00;;;4.60;;
40955;SDS011;26687;48.254;11.454;2022-08-19T14:49:56;4.70;;;4.30;;
40955;SDS011;26687;48.254;11.454;2022-08-19T14:52:57;5.93;;;5.40;;
40955;SDS011;26687;48.254;11.454;2022-08-19T14:55:58;6.13;;;5.63;;
40955;SDS011;26687;48.254;11.454;2022-08-19T14:58:58;7.18;;;6.28;;
40955;SDS011;26687;48.254;11.454;2022-08-19T15:02:00;7.30;;;6.70;;
40955;SDS011;26687;48.254;11.454;2022-08-19T15:05:01;12.37;;;7.20;;
40955;SDS011;26687;48.254;11.454;2022-08-19T15:08:04;7.97;;;7.28;;
40955;SDS011;26687;48.254;11.454;2022-08-19T15:11:11;13.90;;;11.23;;
40955;SDS011;26687;48.254;11.454;2022-08-19T15:14:11;10.50;;;9.07;;
40955;SDS011;26687;48.254;11.454;2022-08-19T15:17:13;58.85;;;32.17;;
40955;SDS011;26687;48.254;11.454;2022-08-19T15:20:15;19.55;;;13.35;;
40955;SDS011;26687;48.254;11.454;2022-08-19T15:23:16;13.38;;;8.75;;
40955;SDS011;26687;48.254;11.454;2022-08-19T15:26:17;63.55;;;27.85;;
40955;SDS011;26687;48.254;11.454;2022-08-19T15:29:18;8.10;;;7.40;;
40955;SDS011;26687;48.254;11.454;2022-08-19T15:32:18;8.03;;;7.33;;
40955;SDS011;26687;48.254;11.454;2022-08-19T15:35:19;8.27;;;7.50;;
40955;SDS011;26687;48.254;11.454;2022-08-19T15:38:19;10.77;;;8.00;;
40955;SDS011;26687;48.254;11.454;2022-08-19T15:41:22;9.07;;;8.27;;
40955;SDS011;26687;48.254;11.454;2022-08-19T15:44:22;8.75;;;8.05;;
40955;SDS011;26687;48.254;11.454;2022-08-19T15:47:23;8.30;;;7.60;;
40955;SDS011;26687;48.254;11.454;2022-08-19T15:50:24;8.10;;;7.40;;
40955;SDS011;26687;48.254;11.454;2022-08-19T15:53:24;8.05;;;7.25;;
40955;SDS011;26687;48.254;11.454;2022-08-19T15:56:25;7.75;;;7.15;;
40955;SDS011;26687;48.254;11.454;2022-08-19T15:59:26;7.80;;;7.20;;
40955;SDS011;26687;48.254;11.454;2022-08-19T16:02:45;7.22;;;6.60;;
40955;SDS011;26687;48.254;11.454;2022-08-19T16:06:04;7.85;;;7.25;;
40955;SDS011;26687;48.254;11.454;2022-08-19T16:09:24;8.23;;;7.53;;
40955;SDS011;26687;48.254;11.454;2022-08-19T16:12:27;8.07;;;7.38;;
40955;SDS011;26687;48.254;11.454;2022-08-19T16:15:29;8.55;;;7.85;;
40955;SDS011;26687;48.254;11.454;2022-08-19T16:18:29;8.40;;;7.80;;
40955;SDS011;26687;48.254;11.454;2022-08-19T16:21:29;8.10;;;7.50;;
40955;SDS011;26687;48.254;11.454;2022-08-19T16:24:33;7.97;;;7.38;;
40955;SDS011;26687;48.254;11.454;2022-08-19T16:27:33;8.60;;;7.90;;
40955;SDS011;26687;48.254;11.454;2022-08-19T16:30:35;9.07;;;8.38;;
40955;SDS011;26687;48.254;11.454;2022-08-19T16:33:35;9.90;;;9.05;;
40955;SDS011;26687;48.254;11.454;2022-08-19T16:36:35;9.23;;;8.52;;
40955;SDS011;26687;48.254;11.454;2022-08-19T16:39:37;9.07;;;8.38;;
40955;SDS011;26687;48.254;11.454;2022-08-19T16:42:37;9.65;;;8.80;;
40955;SDS011;26687;48.254;11.454;2022-08-19T16:45:38;9.52;;;8.73;;
40955;SDS011;26687;48.254;11.454;2022-08-19T16:48:38;9.13;;;8.38;;
40955;SDS011;26687;48.254;11.454;2022-08-19T16:51:42;8.15;;;7.45;;
40955;SDS011;26687;48.254;11.454;2022-08-19T16:54:42;8.15;;;7.45;;
40955;SDS011;26687;48.254;11.454;2022-08-19T16:57:43;11.20;;;8.00;;
40955;SDS011;26687;48.254;11.454;2022-08-19T17:00:43;6.87;;;6.27;;
40955;SDS011;26687;48.254;11.454;2022-08-19T17:03:43;6.15;;;5.65;;
40955;SDS011;26687;48.254;11.454;2022-08-19T17:06:44;5.40;;;4.90;;
40955;SDS011;26687;48.254;11.454;2022-08-19T17:09:44;5.13;;;4.68;;
40955;SDS011;26687;48.254;11.454;2022-08-19T17:12:44;4.50;;;4.18;;
40955;SDS011;26687;48.254;11.454;2022-08-19T17:15:45;4.47;;;3.97;;
40955;SDS011;26687;48.254;11.454;2022-08-19T17:18:45;3.38;;;3.15;;
40955;SDS011;26687;48.254;11.454;2022-08-19T17:21:45;3.08;;;2.88;;
40955;SDS011;26687;48.254;11.454;2022-08-19T17:24:45;2.90;;;2.70;;
40955;SDS011;26687;48.254;11.454;2022-08-19T17:27:46;2.70;;;2.50;;
40955;SDS011;26687;48.254;11.454;2022-08-19T17:30:46;3.33;;;2.85;;
40955;SDS011;26687;48.254;11.454;2022-08-19T17:33:47;2.90;;;2.70;;
40955;SDS011;26687;48.254;11.454;2022-08-19T17:36:47;3.08;;;2.88;;
40955;SDS011;26687;48.254;11.454;2022-08-19T17:39:47;3.00;;;2.80;;
40955;SDS011;26687;48.254;11.454;2022-08-19T17:42:48;3.75;;;3.30;;
40955;SDS011;26687;48.254;11.454;2022-08-19T17:45:48;3.10;;;2.90;;
40955;SDS011;26687;48.254;11.454;2022-08-19T17:48:49;3.70;;;3.40;;
40955;SDS011;26687;48.254;11.454;2022-08-19T17:51:50;3.47;;;3.20;;
40955;SDS011;26687;48.254;11.454;2022-08-19T17:54:51;3.75;;;3.45;;
40955;SDS011;26687;48.254;11.454;2022-08-19T17:57:51;2.90;;;2.70;;
40955;SDS011;26687;48.254;11.454;2022-08-19T18:00:51;2.90;;;2.70;;
40955;SDS011;26687;48.254;11.454;2022-08-19T18:03:52;3.33;;;3.08;;